Terminal Aerodrome Forecast
Issued by NWS Cheyenne, WY

Home | Current Version | Previous Version | Text Only | Print | Product List | Glossary On
Versions: 1 2 3 4 5 6 7 8 9 10 11 12 13 14
000
FTUS45 KCYS 131403 AAA
TAFCYS
TAF AMD
KCYS 131403Z 1314/1412 35008KT P6SM SCT250
     FM131600 34014G22KT P6SM SKC
     FM140000 36012G20KT P6SM BKN050 OVC100
     FM140600 02012G20KT P6SM VCSH SCT008 OVC020=

USA.gov is the U.S. government's official web portal to all federal, state and local government web resources and services.